Terminal Aerodrome Forecast
Issued by NWS

Home | Current Version | Previous Version | Text Only | Print | Product List | Glossary On
Versions: 1 2 3 4 5 6 7 8 9 10 11 12 13 14 15 16 17 18 19 20
000
FTUS43 KMQT 241100
TAFIWD
TAF
KIWD 241140Z 2412/2512 32010KT 4SM -RA OVC002
     FM241300 32012KT 1SM -SN BR OVC003
     FM241500 32013G20KT 1SM -SN OVC005
     FM250300 31009KT 3SM -SN OVC008
     FM250900 30009KT 5SM -SN OVC015
      AMD LTD TO CLD VIS AND WIND=

USA.gov is the U.S. government's official web portal to all federal, state and local government web resources and services.